createdAt,value
2023-05-25T00:00:01.487Z,7.8
2023-05-25T00:01:03.265Z,7.8
2023-05-25T00:02:02.234Z,7.7
2023-05-25T00:03:01.898Z,7.6
2023-05-25T00:04:01.729Z,7.6
2023-05-25T00:05:01.370Z,7.6
2023-05-25T00:06:01.990Z,7.6
2023-05-25T00:07:01.611Z,7.5
2023-05-25T00:08:01.166Z,7.5
2023-05-25T00:09:01.747Z,7.5
2023-05-25T00:10:01.333Z,7.6
2023-05-25T00:11:01.934Z,7.5
2023-05-25T00:12:01.557Z,7.5
2023-05-25T00:13:02.111Z,7.6
2023-05-25T00:14:01.697Z,7.5
2023-05-25T00:15:01.314Z,7.4
2023-05-25T00:16:01.868Z,7.4
2023-05-25T00:17:01.486Z,7.4
2023-05-25T00:18:02.056Z,7.5
2023-05-25T00:19:01.789Z,7.5
2023-05-25T00:20:01.305Z,7.4
2023-05-25T00:21:01.950Z,7.5
2023-05-25T00:22:01.537Z,7.4
2023-05-25T00:23:02.083Z,7.4
2023-05-25T00:25:01.179Z,7.4
2023-05-25T00:26:01.767Z,7.4
2023-05-25T00:27:01.367Z,7.3
2023-05-25T00:28:01.932Z,7.3
2023-05-25T00:29:01.529Z,7.4
2023-05-25T00:30:02.107Z,7.5
2023-05-25T00:31:01.739Z,7.6
2023-05-25T00:32:01.342Z,7.7
2023-05-25T00:33:02.017Z,7.7
2023-05-25T00:34:01.609Z,7.7
2023-05-25T00:35:01.169Z,7.7
2023-05-25T00:36:01.749Z,7.8
2023-05-25T00:37:01.356Z,7.6
2023-05-25T00:38:01.913Z,7.6
2023-05-25T00:39:01.521Z,7.6
2023-05-25T00:40:02.090Z,7.6
2023-05-25T00:41:01.682Z,7.6
2023-05-25T00:42:01.283Z,7.7
2023-05-25T00:43:01.858Z,7.5
2023-05-25T00:44:01.487Z,7.5
2023-05-25T00:45:02.064Z,7.4
2023-05-25T00:46:01.678Z,7.4
2023-05-25T00:47:01.374Z,7.4
2023-05-25T00:48:01.896Z,7.3
2023-05-25T00:49:01.499Z,7.3
2023-05-25T00:50:02.104Z,7.3
2023-05-25T00:51:01.692Z,7.3
2023-05-25T00:52:01.298Z,7.1
2023-05-25T00:53:01.906Z,7
2023-05-25T00:54:01.497Z,7
2023-05-25T00:55:02.094Z,7
2023-05-25T00:56:01.687Z,7.1
2023-05-25T00:57:01.266Z,6.9
2023-05-25T00:58:01.848Z,7
2023-05-25T00:59:01.429Z,7
2023-05-25T01:00:02.026Z,7
2023-05-25T01:01:01.603Z,7
2023-05-25T01:02:01.235Z,7
2023-05-25T01:03:01.790Z,6.9
2023-05-25T01:04:01.426Z,6.9
2023-05-25T01:05:01.995Z,6.9
2023-05-25T01:06:01.582Z,6.9
2023-05-25T01:07:01.174Z,7
2023-05-25T01:08:01.738Z,7
2023-05-25T01:09:01.356Z,7
2023-05-25T01:10:01.915Z,7.1
2023-05-25T01:11:01.501Z,7.1
2023-05-25T01:12:02.128Z,7.1
2023-05-25T01:13:01.746Z,7.1
2023-05-25T01:14:01.324Z,7
2023-05-25T01:15:01.910Z,7
2023-05-25T01:16:01.502Z,6.9
2023-05-25T01:17:02.108Z,6.8
2023-05-25T01:18:01.717Z,6.7
2023-05-25T01:19:01.309Z,6.8
2023-05-25T01:20:10.278Z,6.8
2023-05-25T01:21:01.546Z,6.9
2023-05-25T01:22:01.156Z,7.1
2023-05-25T01:23:01.733Z,7.1
2023-05-25T01:24:01.315Z,7.1
2023-05-25T01:25:02.074Z,7
2023-05-25T01:26:01.590Z,6.9
2023-05-25T01:27:01.149Z,6.9
2023-05-25T01:28:01.752Z,6.8
2023-05-25T01:29:01.360Z,6.8
2023-05-25T01:30:01.956Z,6.8
2023-05-25T01:31:01.543Z,6.9
2023-05-25T01:32:02.124Z,7
2023-05-25T01:33:01.789Z,6.9
2023-05-25T01:34:01.361Z,6.8
2023-05-25T01:35:01.944Z,6.8
2023-05-25T01:36:01.528Z,6.8
2023-05-25T01:37:02.118Z,6.8
2023-05-25T01:38:01.727Z,6.8
2023-05-25T01:39:01.312Z,6.8
2023-05-25T01:40:01.898Z,6.8
2023-05-25T01:41:01.507Z,6.8
2023-05-25T01:42:02.086Z,6.8
2023-05-25T01:43:01.693Z,6.8
2023-05-25T01:44:01.276Z,6.8
2023-05-25T01:45:01.853Z,6.8
2023-05-25T01:46:01.502Z,6.9
2023-05-25T01:47:02.025Z,6.9
2023-05-25T01:48:01.646Z,7
2023-05-25T01:49:01.214Z,7
2023-05-25T01:50:01.834Z,7
2023-05-25T01:51:01.442Z,7
2023-05-25T01:52:02.030Z,6.9
2023-05-25T01:53:01.662Z,6.9
2023-05-25T01:54:01.236Z,7.1
2023-05-25T01:55:01.840Z,7.1
2023-05-25T01:56:01.428Z,7.1
2023-05-25T01:57:02.048Z,7
2023-05-25T01:58:01.649Z,7
2023-05-25T01:59:01.208Z,7
2023-05-25T02:00:01.789Z,7
2023-05-25T02:01:01.386Z,7.1
2023-05-25T02:02:02.028Z,7
2023-05-25T02:03:01.745Z,7.1
2023-05-25T02:04:01.233Z,7.1
2023-05-25T02:05:01.797Z,7.1
2023-05-25T02:06:01.408Z,7.1
2023-05-25T02:07:01.986Z,7.2
2023-05-25T02:08:01.591Z,7
2023-05-25T02:09:01.160Z,7
2023-05-25T02:10:01.747Z,7
2023-05-25T02:11:01.335Z,6.8
2023-05-25T02:12:01.921Z,6.8
2023-05-25T02:13:01.556Z,6.9
2023-05-25T02:14:02.100Z,7
2023-05-25T02:15:01.684Z,7.1
2023-05-25T02:16:01.328Z,7.2
2023-05-25T02:17:01.898Z,7.2
2023-05-25T02:18:01.579Z,7.3
2023-05-25T02:19:02.110Z,7.4
2023-05-25T02:20:01.745Z,7.3
2023-05-25T02:21:01.369Z,7.5
2023-05-25T02:22:01.914Z,7.6
2023-05-25T02:23:01.514Z,7.6
2023-05-25T02:24:02.111Z,7.7
2023-05-25T02:25:01.731Z,7.7
2023-05-25T02:26:01.322Z,7.6
2023-05-25T02:27:01.907Z,7.7
2023-05-25T02:28:01.487Z,7.8
2023-05-25T02:29:02.120Z,7.9
2023-05-25T02:30:01.717Z,7.9
2023-05-25T02:31:01.322Z,8
2023-05-25T02:32:01.894Z,8.1
2023-05-25T02:33:01.576Z,8
2023-05-25T02:34:02.074Z,8
2023-05-25T02:35:01.672Z,8.1
2023-05-25T02:36:01.258Z,8.1
2023-05-25T02:37:01.846Z,8.1
2023-05-25T02:38:01.431Z,8
2023-05-25T02:39:02.042Z,8
2023-05-25T02:40:01.670Z,8.1
2023-05-25T02:41:01.227Z,8.1
2023-05-25T02:42:01.824Z,8.2
2023-05-25T02:43:01.404Z,8.1
2023-05-25T02:44:01.998Z,8.1
2023-05-25T02:45:01.630Z,8.1
2023-05-25T02:46:01.165Z,8.1
2023-05-25T02:47:01.898Z,8.1
2023-05-25T02:48:01.419Z,8.2
2023-05-25T02:49:01.975Z,8.2
2023-05-25T02:50:01.615Z,8.1
2023-05-25T02:51:01.164Z,8.1
2023-05-25T02:52:01.741Z,8.1
2023-05-25T02:53:01.339Z,8.1
2023-05-25T02:54:01.924Z,8
2023-05-25T02:55:01.534Z,8
2023-05-25T02:56:02.099Z,8
2023-05-25T02:57:01.687Z,8
2023-05-25T02:58:01.273Z,8
2023-05-25T02:59:01.858Z,8
2023-05-25T03:00:01.479Z,7.8
2023-05-25T03:01:02.057Z,7.6
2023-05-25T03:02:01.654Z,7.5
2023-05-25T03:03:01.262Z,7.3
2023-05-25T03:04:01.960Z,7.3
2023-05-25T03:05:04.000Z,7.2
2023-05-25T03:06:02.040Z,7.1
2023-05-25T03:07:01.636Z,7.1
2023-05-25T03:08:01.845Z,7.1
2023-05-25T03:09:01.446Z,7.1
2023-05-25T03:10:02.047Z,7.1
2023-05-25T03:11:01.675Z,7.2
2023-05-25T03:12:01.231Z,7.2
2023-05-25T03:13:01.811Z,7.2
2023-05-25T03:14:01.420Z,7.1
2023-05-25T03:15:02.001Z,6.9
2023-05-25T03:16:01.668Z,6.8
2023-05-25T03:17:01.381Z,6.7
2023-05-25T03:18:01.801Z,6.7
2023-05-25T03:19:01.428Z,6.7
2023-05-25T03:20:02.215Z,6.7
2023-05-25T03:21:01.717Z,6.7
2023-05-25T03:22:01.247Z,6.6
2023-05-25T03:23:01.826Z,6.7
2023-05-25T03:24:01.422Z,6.6
2023-05-25T03:25:01.993Z,6.6
2023-05-25T03:26:01.597Z,6.6
2023-05-25T03:27:01.169Z,6.6
2023-05-25T03:28:01.740Z,6.6
2023-05-25T03:29:01.328Z,6.6
2023-05-25T03:30:01.904Z,6.5
2023-05-25T03:31:01.508Z,6.6
2023-05-25T03:32:02.125Z,6.6
2023-05-25T03:33:01.840Z,6.6
2023-05-25T03:34:01.302Z,6.6
2023-05-25T03:35:01.887Z,6.6
2023-05-25T03:36:01.487Z,6.7
2023-05-25T03:37:02.084Z,6.7
2023-05-25T03:38:01.689Z,6.7
2023-05-25T03:39:01.294Z,6.7
2023-05-25T03:40:01.881Z,6.7
2023-05-25T03:41:01.486Z,6.7
2023-05-25T03:42:02.070Z,6.8
2023-05-25T03:43:01.650Z,6.9
2023-05-25T03:44:01.231Z,7
2023-05-25T03:45:01.811Z,7
2023-05-25T03:46:01.416Z,7
2023-05-25T03:47:02.002Z,7.1
2023-05-25T03:48:01.666Z,7
2023-05-25T03:49:01.180Z,7
2023-05-25T03:50:01.746Z,7
2023-05-25T03:51:01.343Z,7
2023-05-25T03:52:01.916Z,6.9
2023-05-25T03:53:01.552Z,6.8
2023-05-25T03:54:02.114Z,6.9
2023-05-25T03:55:01.705Z,7
2023-05-25T03:56:01.291Z,7.2
2023-05-25T03:57:01.876Z,7.3
2023-05-25T03:58:01.485Z,7.3
2023-05-25T03:59:02.050Z,7.4
2023-05-25T04:00:01.636Z,7.5
2023-05-25T04:01:02.486Z,7.5
2023-05-25T04:02:01.759Z,7.8
2023-05-25T04:03:01.429Z,8
2023-05-25T04:04:02.193Z,8.3
2023-05-25T04:05:01.649Z,8.4
2023-05-25T04:06:01.205Z,8.5
2023-05-25T04:07:01.784Z,8.7
2023-05-25T04:08:01.399Z,8.7
2023-05-25T04:09:01.950Z,8.8
2023-05-25T04:10:01.530Z,8.9
2023-05-25T04:11:02.123Z,9
2023-05-25T04:12:01.709Z,9.2
2023-05-25T04:13:01.320Z,9.3
2023-05-25T04:14:01.876Z,9.4
2023-05-25T04:15:01.464Z,9.2
2023-05-25T04:16:02.052Z,9.3
2023-05-25T04:17:01.673Z,9.3
2023-05-25T04:18:01.370Z,9.4
2023-05-25T04:19:01.856Z,9.5
2023-05-25T04:20:01.475Z,9.4
2023-05-25T04:21:02.239Z,9.3
2023-05-25T04:22:01.868Z,9.3
2023-05-25T04:23:01.323Z,9.1
2023-05-25T04:24:01.887Z,8.9
2023-05-25T04:25:01.480Z,8.9
2023-05-25T04:26:02.051Z,8.8
2023-05-25T04:27:01.630Z,8.9
2023-05-25T04:28:01.232Z,8.9
2023-05-25T04:29:01.836Z,8.9
2023-05-25T04:30:01.437Z,9
2023-05-25T04:31:02.007Z,9
2023-05-25T04:32:01.617Z,9.1
2023-05-25T04:33:01.187Z,9.1
2023-05-25T04:34:01.766Z,9.2
2023-05-25T04:35:01.347Z,9.1
2023-05-25T04:36:01.941Z,9.2
2023-05-25T04:37:01.552Z,9.2
2023-05-25T04:38:02.109Z,9.2
2023-05-25T04:39:01.711Z,9.1
2023-05-25T04:40:01.332Z,9.3
2023-05-25T04:41:01.882Z,9.3
2023-05-25T04:42:01.540Z,9.3
2023-05-25T04:43:02.111Z,9.3
2023-05-25T04:45:01.251Z,9.5
2023-05-25T04:46:01.869Z,9.5
2023-05-25T04:47:01.555Z,9.5
2023-05-25T04:48:02.153Z,9.5
2023-05-25T04:49:01.757Z,9.6
2023-05-25T04:50:01.325Z,9.5
2023-05-25T04:51:01.890Z,9.4
2023-05-25T04:52:01.485Z,9.6
2023-05-25T04:53:02.083Z,9.6
2023-05-25T04:54:01.678Z,9.6
2023-05-25T04:55:01.271Z,9.6
2023-05-25T04:56:01.868Z,9.6
2023-05-25T04:57:01.467Z,9.4
2023-05-25T04:58:02.027Z,9.3
2023-05-25T04:59:01.613Z,9.3
2023-05-25T05:00:01.227Z,9.2
2023-05-25T05:01:01.789Z,9.2
2023-05-25T05:02:01.421Z,9.1
2023-05-25T05:03:02.172Z,9.1
2023-05-25T05:04:01.889Z,9.1
2023-05-25T05:05:01.211Z,9.1
2023-05-25T05:06:01.795Z,9.2
2023-05-25T05:07:01.379Z,9.2
2023-05-25T05:08:01.971Z,9.1
2023-05-25T05:09:01.633Z,9.2
2023-05-25T05:10:01.230Z,9.2
2023-05-25T05:11:01.763Z,9.3
2023-05-25T05:12:01.390Z,9.2
2023-05-25T05:13:01.945Z,9.1
2023-05-25T05:14:01.533Z,9.1
2023-05-25T05:15:02.111Z,9.1
2023-05-25T05:16:01.695Z,9.1
2023-05-25T05:17:01.399Z,9.1
2023-05-25T05:18:01.897Z,9.1
2023-05-25T05:19:01.514Z,9.1
2023-05-25T05:20:02.133Z,9.1
2023-05-25T05:21:01.738Z,9.2
2023-05-25T05:22:01.322Z,9.3
2023-05-25T05:23:01.981Z,9.2
2023-05-25T05:24:01.595Z,9.2
2023-05-25T05:25:01.164Z,9.3
2023-05-25T05:26:01.718Z,9.2
2023-05-25T05:27:02.689Z,9.2
2023-05-25T05:28:01.847Z,9.5
2023-05-25T05:29:01.454Z,9.7
2023-05-25T05:30:02.038Z,9.8
2023-05-25T05:31:01.662Z,9.9
2023-05-25T05:32:01.238Z,9.8
2023-05-25T05:33:01.861Z,9.8
2023-05-25T05:34:01.486Z,9.8
2023-05-25T05:35:02.061Z,9.9
2023-05-25T05:36:01.684Z,10
2023-05-25T05:37:01.273Z,10.1
2023-05-25T05:38:01.855Z,10
2023-05-25T05:39:01.444Z,10.1
2023-05-25T05:40:02.039Z,10.2
2023-05-25T05:41:01.668Z,10.2
2023-05-25T05:42:01.206Z,10.3
2023-05-25T05:43:01.816Z,10.4
2023-05-25T05:44:01.403Z,10.4
2023-05-25T05:45:01.987Z,10.4
2023-05-25T05:46:01.635Z,10.4
2023-05-25T05:47:01.797Z,10.4
2023-05-25T05:48:01.554Z,10.6
2023-05-25T05:49:01.141Z,10.6
2023-05-25T05:50:01.733Z,10.6
2023-05-25T05:51:01.328Z,10.8
2023-05-25T05:52:01.896Z,10.7
2023-05-25T05:53:01.501Z,10.8
2023-05-25T05:54:02.067Z,10.8
2023-05-25T05:55:01.661Z,10.9
2023-05-25T05:56:01.270Z,11
2023-05-25T05:57:01.857Z,11
2023-05-25T05:58:01.443Z,11
2023-05-25T05:59:02.027Z,11
2023-05-25T06:00:01.625Z,10.9
2023-05-25T06:01:01.212Z,10.8
2023-05-25T06:02:01.864Z,10.9
2023-05-25T06:03:01.548Z,11.1
2023-05-25T06:04:02.025Z,11.2
2023-05-25T06:05:01.618Z,11.1
2023-05-25T06:06:01.256Z,11.1
2023-05-25T06:07:01.762Z,11.4
2023-05-25T06:08:01.367Z,11.4
2023-05-25T06:09:01.936Z,11.4
2023-05-25T06:10:01.527Z,11.5
2023-05-25T06:11:02.122Z,11.4
2023-05-25T06:12:01.731Z,11.5
2023-05-25T06:13:01.393Z,11.5
2023-05-25T06:14:01.913Z,11.6
2023-05-25T06:15:01.495Z,11.6
2023-05-25T06:16:02.109Z,11.6
2023-05-25T06:17:02.030Z,11.5
2023-05-25T06:18:01.907Z,11.5
2023-05-25T06:19:01.628Z,11.5
2023-05-25T06:20:01.333Z,11.6
2023-05-25T06:21:01.851Z,11.6
2023-05-25T06:22:01.430Z,11.8
2023-05-25T06:23:02.061Z,11.7
2023-05-25T06:24:01.655Z,11.8
2023-05-25T06:25:01.263Z,11.8
2023-05-25T06:26:01.825Z,11.7
2023-05-25T06:27:01.466Z,11.6
2023-05-25T06:28:02.053Z,11.8
2023-05-25T06:29:01.768Z,11.7
2023-05-25T06:30:01.251Z,11.8
2023-05-25T06:31:01.807Z,11.8
2023-05-25T06:32:01.433Z,11.8
2023-05-25T06:33:02.027Z,11.9
2023-05-25T06:34:01.641Z,12.2
2023-05-25T06:35:01.248Z,12.1
2023-05-25T06:36:01.821Z,12.2
2023-05-25T06:37:01.414Z,12.2
2023-05-25T06:38:01.987Z,12.2
2023-05-25T06:39:01.584Z,12.1
2023-05-25T06:40:01.158Z,12.2
2023-05-25T06:41:01.745Z,12.3
2023-05-25T06:42:01.360Z,12.3
2023-05-25T06:43:01.931Z,12.5
2023-05-25T06:44:01.568Z,12.6
2023-05-25T06:45:01.171Z,12.6
2023-05-25T06:46:01.781Z,12.5
2023-05-25T06:47:01.369Z,12.5
2023-05-25T06:48:02.052Z,12.4
2023-05-25T06:49:01.605Z,12.6
2023-05-25T06:50:01.206Z,12.7
2023-05-25T06:51:01.782Z,12.8
2023-05-25T06:52:01.384Z,12.8
2023-05-25T06:53:01.963Z,12.8
2023-05-25T06:54:01.542Z,12.8
2023-05-25T06:55:02.126Z,12.6
2023-05-25T06:56:01.720Z,12.6
2023-05-25T06:57:01.301Z,12.6
2023-05-25T06:58:01.898Z,12.6
2023-05-25T06:59:01.481Z,12.8
2023-05-25T07:00:02.058Z,12.7
2023-05-25T07:01:01.778Z,12.9
2023-05-25T07:02:01.236Z,12.8
2023-05-25T07:03:01.837Z,13
2023-05-25T07:04:01.467Z,13.1
2023-05-25T07:05:02.046Z,13.1
2023-05-25T07:06:01.642Z,13.3
2023-05-25T07:07:01.235Z,13.4
2023-05-25T07:08:01.829Z,13.5
2023-05-25T07:09:01.412Z,13.8
2023-05-25T07:10:01.999Z,13.8
2023-05-25T07:11:01.590Z,13.7
2023-05-25T07:12:01.173Z,13.5
2023-05-25T07:13:01.771Z,13.3
2023-05-25T07:14:01.350Z,13.2
2023-05-25T07:15:01.938Z,12.9
2023-05-25T07:16:01.600Z,12.9
2023-05-25T07:17:02.141Z,12.7
2023-05-25T07:18:01.793Z,12.5
2023-05-25T07:19:01.361Z,12.5
2023-05-25T07:20:01.955Z,12.8
2023-05-25T07:21:01.551Z,13
2023-05-25T07:22:02.130Z,13.2
2023-05-25T07:23:01.733Z,13.4
2023-05-25T07:24:01.365Z,13.5
2023-05-25T07:25:01.905Z,13.3
2023-05-25T07:26:02.981Z,13.3
2023-05-25T07:27:02.023Z,13.5
2023-05-25T07:28:01.648Z,13.5
2023-05-25T07:29:01.354Z,13.7
2023-05-25T07:30:01.910Z,13.4
2023-05-25T07:31:01.598Z,13.3
2023-05-25T07:32:02.087Z,13.2
2023-05-25T07:33:01.757Z,13.3
2023-05-25T07:34:01.345Z,13.5
2023-05-25T07:35:01.928Z,13.8
2023-05-25T07:36:01.508Z,13.7
2023-05-25T07:37:02.091Z,13.5
2023-05-25T07:38:01.673Z,13.6
2023-05-25T07:39:01.288Z,13.5
2023-05-25T07:40:01.893Z,13.8
2023-05-25T07:41:01.498Z,13.8
2023-05-25T07:42:02.071Z,13.8
2023-05-25T07:43:01.662Z,13.9
2023-05-25T07:44:01.283Z,13.9
2023-05-25T07:45:01.849Z,14.1
2023-05-25T07:46:01.456Z,14
2023-05-25T07:47:02.117Z,13.8
2023-05-25T07:48:01.702Z,13.8
2023-05-25T07:49:01.308Z,13.8
2023-05-25T07:50:01.851Z,13.8
2023-05-25T07:51:01.450Z,13.8
2023-05-25T07:52:02.028Z,13.7
2023-05-25T07:53:01.639Z,13.6
2023-05-25T07:54:01.221Z,13.4
2023-05-25T07:55:01.822Z,13.6
2023-05-25T07:56:01.442Z,13.7
2023-05-25T07:57:02.036Z,13.7
2023-05-25T07:58:01.633Z,13.8
2023-05-25T07:59:01.231Z,13.8
2023-05-25T08:00:01.806Z,13.8
2023-05-25T08:01:01.384Z,13.9
2023-05-25T08:02:02.008Z,13.9
2023-05-25T08:03:01.850Z,14.1
2023-05-25T08:04:01.270Z,14.1
2023-05-25T08:05:01.841Z,14.3
2023-05-25T08:06:01.441Z,14.2
2023-05-25T08:07:02.038Z,14.3
2023-05-25T08:08:01.708Z,14.3
2023-05-25T08:09:01.272Z,14.3
2023-05-25T08:10:01.906Z,14.2
2023-05-25T08:11:01.576Z,14.3
2023-05-25T08:12:21.783Z,14
2023-05-25T08:13:01.655Z,14.1
2023-05-25T08:14:01.244Z,14.2
2023-05-25T08:15:01.825Z,14
2023-05-25T08:16:01.473Z,13.9
2023-05-25T08:17:02.044Z,13.7
2023-05-25T08:18:01.677Z,13.6
2023-05-25T08:19:01.241Z,13.7
2023-05-25T08:20:01.839Z,13.7
2023-05-25T08:21:01.597Z,13.7
2023-05-25T08:22:02.030Z,13.9
2023-05-25T08:23:01.639Z,13.9
2023-05-25T08:24:01.230Z,14
2023-05-25T08:25:01.791Z,13.9
2023-05-25T08:26:01.422Z,13.8
2023-05-25T08:27:01.996Z,13.9
2023-05-25T08:28:01.614Z,13.7
2023-05-25T08:29:01.175Z,13.6
2023-05-25T08:30:01.752Z,13.5
2023-05-25T08:31:01.389Z,13.5
2023-05-25T08:32:01.922Z,13.6
2023-05-25T08:33:01.650Z,13.6
2023-05-25T08:34:02.087Z,13.7
2023-05-25T08:35:01.686Z,13.6
2023-05-25T08:36:01.272Z,13.3
2023-05-25T08:37:01.885Z,13.5
2023-05-25T08:38:01.469Z,13.6
2023-05-25T08:39:02.125Z,13.8
2023-05-25T08:40:01.725Z,13.8
2023-05-25T08:41:01.291Z,13.5
2023-05-25T08:42:01.871Z,13.6
2023-05-25T08:43:01.456Z,13.6
2023-05-25T08:44:02.060Z,13.6
2023-05-25T08:45:01.719Z,13.7
2023-05-25T08:46:01.236Z,13.5
2023-05-25T08:47:01.806Z,13.8
2023-05-25T08:48:01.474Z,14
2023-05-25T08:49:02.060Z,13.9
2023-05-25T08:50:01.649Z,13.8
2023-05-25T08:51:01.220Z,13.9
2023-05-25T08:52:01.801Z,13.8
2023-05-25T08:53:01.428Z,13.9
2023-05-25T08:54:01.961Z,13.8
2023-05-25T08:55:01.559Z,13.7
2023-05-25T08:56:02.127Z,13.6
2023-05-25T08:57:01.792Z,13.7
2023-05-25T08:58:01.379Z,13.6
2023-05-25T08:59:02.545Z,13.5
2023-05-25T09:00:01.342Z,13.7
2023-05-25T09:01:01.930Z,13.7
2023-05-25T09:02:01.579Z,13.8
2023-05-25T09:03:02.125Z,13.8
2023-05-25T09:04:01.765Z,13.8
2023-05-25T09:05:01.366Z,13.9
2023-05-25T09:06:01.981Z,14
2023-05-25T09:07:09.382Z,14.1
2023-05-25T09:08:02.108Z,14
2023-05-25T09:09:01.712Z,14.1
2023-05-25T09:10:01.321Z,14.2
2023-05-25T09:11:02.188Z,14.3
2023-05-25T09:12:01.530Z,14.4
2023-05-25T09:13:13.104Z,14.3
2023-05-25T09:14:01.650Z,14.2
2023-05-25T09:15:01.253Z,14.2
2023-05-25T09:16:01.840Z,14.2
2023-05-25T09:17:01.497Z,14.2
2023-05-25T09:18:02.078Z,14
2023-05-25T09:19:01.712Z,14
2023-05-25T09:20:01.344Z,13.9
2023-05-25T09:21:01.919Z,14
2023-05-25T09:22:13.921Z,14.1
2023-05-25T09:23:02.058Z,14.1
2023-05-25T09:24:01.647Z,14.1
2023-05-25T09:25:01.330Z,14.1
2023-05-25T09:26:01.822Z,14
2023-05-25T09:27:01.414Z,13.8
2023-05-25T09:28:10.420Z,13.6
2023-05-25T09:29:01.524Z,13.5
2023-05-25T09:30:02.178Z,13.6
2023-05-25T09:31:01.801Z,13.7
2023-05-25T09:32:01.431Z,13.7
2023-05-25T09:33:01.947Z,13.6
2023-05-25T09:34:01.586Z,13.6
2023-05-25T09:35:02.198Z,13.7
2023-05-25T09:36:01.803Z,13.5
2023-05-25T09:37:01.457Z,13.3
2023-05-25T09:38:02.091Z,13.1
2023-05-25T09:39:01.789Z,13.1
2023-05-25T09:40:01.244Z,12.9
2023-05-25T09:41:01.824Z,13.1
2023-05-25T09:42:01.407Z,13.2
2023-05-25T09:43:02.012Z,13.2
2023-05-25T09:44:10.818Z,13.5
2023-05-25T09:45:02.273Z,13.7
2023-05-25T09:46:01.956Z,13.8
2023-05-25T09:47:01.425Z,13.9
2023-05-25T09:48:02.089Z,14.1
2023-05-25T09:49:01.664Z,14.3
2023-05-25T09:50:01.257Z,14.7
2023-05-25T09:51:01.832Z,14.8
2023-05-25T09:52:01.425Z,14.8
2023-05-25T09:53:02.021Z,14.9
2023-05-25T09:54:01.610Z,14.9
2023-05-25T09:55:01.202Z,14.9
2023-05-25T09:56:02.541Z,14.9
2023-05-25T09:57:01.367Z,14.8
2023-05-25T09:58:01.966Z,14.7
2023-05-25T09:59:01.554Z,14.7
2023-05-25T10:00:02.136Z,14.8
2023-05-25T10:01:01.743Z,14.6
2023-05-25T10:02:01.431Z,14.6
2023-05-25T10:03:01.951Z,14.7
2023-05-25T10:04:04.537Z,14.7
2023-05-25T10:05:02.094Z,14.7
2023-05-25T10:06:01.685Z,14.8
2023-05-25T10:07:01.272Z,14.8
2023-05-25T10:08:01.874Z,14.7
2023-05-25T10:09:01.477Z,14.4
2023-05-25T10:10:02.048Z,14.3
2023-05-25T10:11:01.639Z,14.2
2023-05-25T10:12:01.231Z,14.2
2023-05-25T10:13:01.849Z,14.4
2023-05-25T10:14:01.453Z,14.4
2023-05-25T10:15:02.032Z,14.6
2023-05-25T10:16:01.656Z,14.8
2023-05-25T10:17:01.225Z,14.5
2023-05-25T10:18:01.852Z,14.3
2023-05-25T10:19:01.466Z,14.5
2023-05-25T10:20:02.067Z,14.7
2023-05-25T10:21:02.189Z,14.8
2023-05-25T10:22:01.222Z,14.8
2023-05-25T10:23:01.826Z,14.8
2023-05-25T10:24:01.436Z,14.9
2023-05-25T10:25:02.020Z,14.8
2023-05-25T10:26:01.651Z,14.8
2023-05-25T10:27:05.431Z,14.9
2023-05-25T10:28:01.749Z,15.2
2023-05-25T10:29:01.383Z,15.3
2023-05-25T10:30:02.015Z,15.3
2023-05-25T10:31:01.593Z,15.6
2023-05-25T10:32:02.249Z,15.6
2023-05-25T10:33:01.970Z,15.8
2023-05-25T10:34:01.429Z,15.6
2023-05-25T10:35:02.002Z,15.7
2023-05-25T10:36:08.963Z,15.6
2023-05-25T10:37:02.143Z,15.7
2023-05-25T10:38:01.745Z,15.9
2023-05-25T10:39:01.337Z,16.1
2023-05-25T10:40:01.920Z,16.2
2023-05-25T10:41:01.510Z,16.2
2023-05-25T10:42:02.098Z,16.5
2023-05-25T10:43:01.701Z,16.3
2023-05-25T10:44:01.305Z,16.3
2023-05-25T10:45:01.901Z,16.3
2023-05-25T10:46:01.487Z,16.4
2023-05-25T10:47:02.125Z,16.3
2023-05-25T10:48:01.792Z,16.6
2023-05-25T10:49:01.326Z,17
2023-05-25T10:50:01.901Z,17
2023-05-25T10:51:01.485Z,16.9
2023-05-25T10:52:02.070Z,16.8
2023-05-25T10:53:01.653Z,16.4
2023-05-25T10:54:01.248Z,16.4
2023-05-25T10:55:02.012Z,16.3
2023-05-25T10:56:01.479Z,15.9
2023-05-25T10:57:02.080Z,15.9
2023-05-25T10:58:01.663Z,15.9
2023-05-25T10:59:01.242Z,16
2023-05-25T11:00:01.849Z,16
2023-05-25T11:01:01.544Z,16.3
2023-05-25T11:02:02.111Z,16
2023-05-25T11:03:01.744Z,16.1
2023-05-25T11:04:01.301Z,15.9
2023-05-25T11:05:01.879Z,15.6
2023-05-25T11:06:01.462Z,15.3
2023-05-25T11:07:02.038Z,15.3
2023-05-25T11:08:01.650Z,15.5
2023-05-25T11:09:01.209Z,15.5
2023-05-25T11:10:01.796Z,15.5
2023-05-25T11:11:01.395Z,15.5
2023-05-25T11:12:02.022Z,15.4
2023-05-25T11:13:01.636Z,15.5
2023-05-25T11:14:01.200Z,15.5
2023-05-25T11:15:01.789Z,15.4
2023-05-25T11:16:01.369Z,15.4
2023-05-25T11:17:02.016Z,15.3
2023-05-25T11:18:01.746Z,14.9
2023-05-25T11:19:01.192Z,15
2023-05-25T11:20:01.785Z,15.1
2023-05-25T11:21:01.412Z,15.3
2023-05-25T11:22:01.987Z,15.1
2023-05-25T11:23:01.598Z,15.3
2023-05-25T11:24:02.194Z,15.5
2023-05-25T11:25:01.796Z,15.6
2023-05-25T11:26:01.384Z,15.4
2023-05-25T11:27:02.003Z,15.4
2023-05-25T11:28:01.582Z,15.4
2023-05-25T11:29:02.215Z,15.5
2023-05-25T11:30:01.807Z,15.6
2023-05-25T11:31:01.406Z,15.8
2023-05-25T11:32:01.977Z,15.8
2023-05-25T11:33:01.623Z,16.2
2023-05-25T11:34:02.163Z,16.3
2023-05-25T11:35:01.761Z,16.7
2023-05-25T11:36:01.319Z,16.8
2023-05-25T11:37:01.938Z,16.8
2023-05-25T11:38:01.563Z,16.7
2023-05-25T11:39:06.498Z,16.7
2023-05-25T11:40:01.706Z,16.9
2023-05-25T11:41:01.284Z,16.9
2023-05-25T11:42:01.872Z,16.9
2023-05-25T11:43:01.462Z,17.2
2023-05-25T11:44:02.058Z,17.1
2023-05-25T11:45:01.639Z,16.8
2023-05-25T11:46:01.232Z,16.4
2023-05-25T11:47:02.074Z,16.2
2023-05-25T11:48:01.479Z,16.4
2023-05-25T11:49:02.083Z,16.6
2023-05-25T11:50:01.733Z,16.4
2023-05-25T11:51:01.291Z,16.5
2023-05-25T11:52:01.877Z,16.7
2023-05-25T11:53:01.466Z,16.7
2023-05-25T11:54:02.045Z,16.8
2023-05-25T11:55:01.643Z,16.7
2023-05-25T11:56:07.850Z,17
2023-05-25T11:57:01.748Z,16.8
2023-05-25T11:58:01.346Z,16.7
2023-05-25T11:59:01.932Z,17
2023-05-25T12:00:01.540Z,17.2
2023-05-25T12:01:02.109Z,17.3
2023-05-25T12:02:01.728Z,17.5
2023-05-25T12:03:01.393Z,17.3
2023-05-25T12:04:01.982Z,17
2023-05-25T12:05:01.833Z,17
2023-05-25T12:06:02.152Z,16.9
2023-05-25T12:07:01.743Z,16.8
2023-05-25T12:08:01.340Z,16.3
2023-05-25T12:09:01.913Z,16.4
2023-05-25T12:10:01.565Z,16.6
2023-05-25T12:11:02.139Z,16.6
2023-05-25T12:12:01.736Z,16.8
2023-05-25T12:13:01.327Z,17.2
2023-05-25T12:14:01.914Z,17.5
2023-05-25T12:15:01.516Z,17.6
2023-05-25T12:16:02.083Z,17.5
2023-05-25T12:17:01.708Z,17.7
2023-05-25T12:18:01.264Z,17.7
2023-05-25T12:19:01.848Z,17.3
2023-05-25T12:20:01.550Z,17.6
2023-05-25T12:21:02.076Z,17.6
2023-05-25T12:22:01.671Z,17.6
2023-05-25T12:23:01.252Z,17.4
2023-05-25T12:24:01.848Z,17.3
2023-05-25T12:25:01.460Z,17.3
2023-05-25T12:26:02.044Z,17.1
2023-05-25T12:27:01.748Z,17.1
2023-05-25T12:28:01.217Z,17.1
2023-05-25T12:29:01.817Z,16.8
2023-05-25T12:30:01.424Z,16.9
2023-05-25T12:31:02.027Z,16.8
2023-05-25T12:32:01.641Z,16.5
2023-05-25T12:33:02.511Z,16.1
2023-05-25T12:34:01.448Z,16.1
2023-05-25T12:35:02.076Z,16.2
2023-05-25T12:36:01.712Z,16.4
2023-05-25T12:37:01.400Z,16.5
2023-05-25T12:38:01.861Z,16.6
2023-05-25T12:39:01.445Z,16.6
2023-05-25T12:40:02.038Z,16.5
2023-05-25T12:41:01.648Z,16.3
2023-05-25T12:42:01.212Z,16.4
2023-05-25T12:43:01.795Z,16.4
2023-05-25T12:44:01.381Z,16.5
2023-05-25T12:45:01.977Z,16.7
2023-05-25T12:46:01.656Z,16.9
2023-05-25T12:47:02.166Z,16.8
2023-05-25T12:48:02.347Z,16.8
2023-05-25T12:49:02.103Z,16.9
2023-05-25T12:50:01.695Z,17.1
2023-05-25T12:51:01.299Z,17.3
2023-05-25T12:52:01.864Z,17.4
2023-05-25T12:53:01.471Z,17
2023-05-25T12:54:02.032Z,16.9
2023-05-25T12:55:01.620Z,16.6
2023-05-25T12:56:01.230Z,16.4
2023-05-25T12:57:01.786Z,16.4
2023-05-25T12:58:01.379Z,16.4
2023-05-25T12:59:01.959Z,16.3
2023-05-25T13:00:01.565Z,15.9
2023-05-25T13:01:02.164Z,15.9
2023-05-25T13:02:01.813Z,15.8
2023-05-25T13:03:01.428Z,16
2023-05-25T13:04:01.964Z,16.2
2023-05-25T13:05:01.599Z,16.2
2023-05-25T13:06:02.363Z,16.4
2023-05-25T13:07:02.047Z,16.8
2023-05-25T13:08:01.398Z,16.9
2023-05-25T13:09:01.986Z,17.1
2023-05-25T13:10:01.653Z,17.3
2023-05-25T13:11:02.182Z,17.6
2023-05-25T13:12:01.785Z,17.4
2023-05-25T13:13:01.411Z,17.8
2023-05-25T13:14:01.960Z,17.9
2023-05-25T13:15:01.570Z,18.1
2023-05-25T13:16:02.157Z,18.3
2023-05-25T13:17:01.802Z,18.1
2023-05-25T13:18:01.419Z,18.1
2023-05-25T13:19:01.958Z,17.5
2023-05-25T13:20:01.567Z,17.2
2023-05-25T13:21:02.272Z,16.9
2023-05-25T13:22:02.009Z,16.8
2023-05-25T13:23:01.388Z,16.9
2023-05-25T13:24:01.973Z,17
2023-05-25T13:25:01.581Z,17.2
2023-05-25T13:26:02.144Z,17.3
2023-05-25T13:27:01.730Z,17.2
2023-05-25T13:28:01.394Z,17.2
2023-05-25T13:29:01.959Z,17.5
2023-05-25T13:30:01.541Z,17.4
2023-05-25T13:31:02.127Z,17.7
2023-05-25T13:32:01.749Z,17.6
2023-05-25T13:33:01.407Z,17.5
2023-05-25T13:34:01.986Z,17.4
2023-05-25T13:35:01.596Z,17.6
2023-05-25T13:36:02.154Z,17.9
2023-05-25T13:37:01.742Z,18.3